Leeds, Alabama
Current Conditions -  °F | °C
As of 5:53 AM on Monday 26 Jan 2015 (Local Time) from KBHM Reporting Station
Overcast Overcast  
Wind Chill: 36°   Ceiling: 1400
Heat Index: 42°   Visibility: 10mi
Dew Point: 37°   Wind: 10mph
Humidity: 82%   Direction: 270°W
Pressure: 29.9"   Gusts: NA
Location:  33.54°N, 86.54°W
Report Text: KBHM 261153Z 27009KT 10SM OVC014 06/03 A2990 RMK AO2 SLP122 70004 T00560028 10072 20056 50008
Loading
Personal Weather Stations






























Interactive Weather Map New forecast layout! Learn more

10-Day Weather Forecast

Advertisements
Track Severe Weather on mobile